createdAt,value
2023-02-26T00:00:30.612Z,2.60
2023-02-26T00:03:00.218Z,2.87
2023-02-26T00:05:37.810Z,2.70
2023-02-26T00:08:07.444Z,2.27
2023-02-26T00:10:37.278Z,2.57
2023-02-26T00:13:07.112Z,2.77
2023-02-26T00:15:38.870Z,2.47
2023-02-26T00:18:17.029Z,2.90
2023-02-26T00:20:48.214Z,2.73
2023-02-26T00:23:26.956Z,2.53
2023-02-26T00:25:56.249Z,2.60
2023-02-26T00:28:27.121Z,2.50
2023-02-26T00:31:04.472Z,2.23
2023-02-26T00:33:34.658Z,2.00
2023-02-26T00:36:28.331Z,2.50
2023-02-26T00:39:13.042Z,2.33
2023-02-26T00:41:47.554Z,2.60
2023-02-26T00:44:26.601Z,2.43
2023-02-26T00:46:59.888Z,2.77
2023-02-26T00:49:42.248Z,2.27
2023-02-26T00:52:24.560Z,2.43
2023-02-26T00:54:59.531Z,2.43
2023-02-26T00:57:28.566Z,2.77
2023-02-26T01:00:05.093Z,2.37
2023-02-26T01:02:34.844Z,2.30
2023-02-26T01:05:13.860Z,2.70
2023-02-26T01:07:53.588Z,2.70
2023-02-26T01:10:27.459Z,2.73
2023-02-26T01:13:05.902Z,1.93
2023-02-26T01:15:43.840Z,2.33
2023-02-26T01:18:17.341Z,2.37
2023-02-26T01:20:54.114Z,2.77
2023-02-26T01:23:28.940Z,2.67
2023-02-26T01:26:00.896Z,2.70
2023-02-26T01:28:34.334Z,2.30
2023-02-26T01:31:07.188Z,2.37
2023-02-26T01:33:44.855Z,2.40
2023-02-26T01:36:24.405Z,2.23
2023-02-26T01:39:14.589Z,2.50
2023-02-26T01:41:48.473Z,2.90
2023-02-26T01:44:24.390Z,2.40
2023-02-26T01:47:06.077Z,2.03
2023-02-26T01:49:47.587Z,2.37
2023-02-26T01:53:08.880Z,1.87
2023-02-26T01:55:39.626Z,3.10
2023-02-26T01:58:07.770Z,2.50
2023-02-26T02:00:40.792Z,2.33
2023-02-26T02:03:11.601Z,2.30
2023-02-26T02:05:46.356Z,2.27
2023-02-26T02:08:22.280Z,2.73
2023-02-26T02:10:53.695Z,2.70
2023-02-26T02:13:39.520Z,2.90
2023-02-26T02:16:21.508Z,1.90
2023-02-26T02:18:57.570Z,2.10
2023-02-26T02:22:12.994Z,2.30
2023-02-26T02:24:54.439Z,2.20
2023-02-26T02:27:35.133Z,1.97
2023-02-26T02:30:18.481Z,1.97
2023-02-26T02:33:03.936Z,2.40
2023-02-26T02:35:39.827Z,1.97
2023-02-26T02:38:17.412Z,2.00
2023-02-26T02:40:59.280Z,1.80
2023-02-26T02:43:32.937Z,2.00
2023-02-26T02:46:07.501Z,2.20
2023-02-26T02:48:51.514Z,2.30
2023-02-26T02:51:26.773Z,2.00
2023-02-26T02:54:02.910Z,2.03
2023-02-26T02:56:41.547Z,2.20
2023-02-26T02:59:19.022Z,1.63
2023-02-26T03:01:51.986Z,2.20
2023-02-26T03:04:38.695Z,1.63
2023-02-26T03:07:18.761Z,1.60
2023-02-26T03:09:48.617Z,1.80
2023-02-26T03:12:23.977Z,1.47
2023-02-26T03:14:53.726Z,1.90
2023-02-26T03:17:30.024Z,1.77
2023-02-26T03:20:10.676Z,2.00
2023-02-26T03:22:43.964Z,1.87
2023-02-26T03:25:22.842Z,1.83
2023-02-26T03:27:56.258Z,1.77
2023-02-26T03:30:31.817Z,2.03
2023-02-26T03:33:05.486Z,1.80
2023-02-26T03:35:39.597Z,1.50
2023-02-26T03:38:15.133Z,1.70
2023-02-26T03:40:48.392Z,2.10
2023-02-26T03:43:21.433Z,2.13
2023-02-26T03:45:53.033Z,1.80
2023-02-26T03:48:32.525Z,1.80
2023-02-26T03:51:12.703Z,1.93
2023-02-26T03:54:10.282Z,2.20
2023-02-26T03:56:54.493Z,2.00
2023-02-26T03:59:45.873Z,1.80
2023-02-26T04:02:40.910Z,1.87
2023-02-26T04:05:26.989Z,1.80
2023-02-26T04:07:59.133Z,1.97
2023-02-26T04:10:40.444Z,2.53
2023-02-26T04:13:12.626Z,2.10
2023-02-26T04:15:49.205Z,2.23
2023-02-26T04:18:21.309Z,2.40
2023-02-26T04:20:53.702Z,2.50
2023-02-26T04:23:27.755Z,2.00
2023-02-26T04:25:59.966Z,2.17
2023-02-26T04:28:31.301Z,2.10
2023-02-26T04:31:04.703Z,2.07
2023-02-26T04:33:33.381Z,2.50
2023-02-26T04:36:05.446Z,2.10
2023-02-26T04:38:47.002Z,2.50
2023-02-26T04:41:15.256Z,2.50
2023-02-26T04:43:45.530Z,2.10
2023-02-26T04:46:36.644Z,2.50
2023-02-26T04:49:11.274Z,2.30
2023-02-26T04:51:44.985Z,2.63
2023-02-26T04:54:33.925Z,2.30
2023-02-26T04:57:04.953Z,2.60
2023-02-26T04:59:45.875Z,2.90
2023-02-26T05:02:15.928Z,2.43
2023-02-26T05:04:52.529Z,2.73
2023-02-26T05:07:23.646Z,2.80
2023-02-26T05:10:01.865Z,3.00
2023-02-26T05:12:36.229Z,3.30
2023-02-26T05:15:12.929Z,3.27
2023-02-26T05:17:49.757Z,2.77
2023-02-26T05:20:24.477Z,2.93
2023-02-26T05:22:55.583Z,3.30
2023-02-26T05:25:37.785Z,3.03
2023-02-26T05:28:06.519Z,3.03
2023-02-26T05:30:38.224Z,3.30
2023-02-26T05:33:13.400Z,3.80
2023-02-26T05:35:47.776Z,4.07
2023-02-26T05:38:18.834Z,3.53
2023-02-26T05:40:57.636Z,3.83
2023-02-26T05:43:30.609Z,4.30
2023-02-26T05:46:04.408Z,4.30
2023-02-26T05:48:33.412Z,3.53
2023-02-26T05:51:07.373Z,3.93
2023-02-26T05:53:41.012Z,3.40
2023-02-26T05:56:13.337Z,4.30
2023-02-26T05:58:47.004Z,3.20
2023-02-26T06:01:18.750Z,4.23
2023-02-26T06:03:48.584Z,3.47
2023-02-26T06:06:21.369Z,4.50
2023-02-26T06:08:58.373Z,3.83
2023-02-26T06:11:34.281Z,4.40
2023-02-26T06:17:10.303Z,4.60
2023-02-26T06:19:44.727Z,4.57
2023-02-26T06:22:16.229Z,4.13
2023-02-26T06:24:51.106Z,4.00
2023-02-26T06:27:32.447Z,4.23
2023-02-26T06:30:03.944Z,4.20
2023-02-26T06:32:39.003Z,5.10
2023-02-26T06:35:12.036Z,4.33
2023-02-26T06:37:43.025Z,4.30
2023-02-26T06:40:12.697Z,4.57
2023-02-26T06:42:50.807Z,5.80
2023-02-26T06:45:21.855Z,3.90
2023-02-26T06:48:00.231Z,3.90
2023-02-26T06:50:39.103Z,3.50
2023-02-26T06:53:13.069Z,4.10
2023-02-26T06:55:47.319Z,4.07
2023-02-26T06:58:18.664Z,4.50
2023-02-26T07:00:48.640Z,3.33
2023-02-26T07:03:22.212Z,3.73
2023-02-26T07:05:57.321Z,3.70
2023-02-26T07:08:31.402Z,3.83
2023-02-26T07:11:00.396Z,3.40
2023-02-26T07:13:31.385Z,3.63
2023-02-26T07:16:01.188Z,3.80
2023-02-26T07:18:49.067Z,3.90
2023-02-26T07:21:20.852Z,3.93
2023-02-26T07:23:53.188Z,3.80
2023-02-26T07:26:22.091Z,3.70
2023-02-26T07:28:56.603Z,4.10
2023-02-26T07:31:31.795Z,3.90
2023-02-26T07:34:02.008Z,4.03
2023-02-26T07:36:39.267Z,4.03
2023-02-26T07:39:08.927Z,4.23
2023-02-26T07:41:40.155Z,4.27
2023-02-26T07:44:19.439Z,3.80
2023-02-26T07:46:53.008Z,3.20
2023-02-26T07:49:28.488Z,3.63
2023-02-26T07:51:59.860Z,3.30
2023-02-26T07:54:31.547Z,3.27
2023-02-26T07:57:05.517Z,3.20
2023-02-26T07:59:40.828Z,3.53
2023-02-26T08:02:21.496Z,3.00
2023-02-26T08:04:55.632Z,3.73
2023-02-26T08:07:36.504Z,3.17
2023-02-26T08:10:08.963Z,3.17
2023-02-26T08:12:38.844Z,3.23
2023-02-26T08:15:18.017Z,2.77
2023-02-26T08:17:47.482Z,2.90
2023-02-26T08:20:19.160Z,3.03
2023-02-26T08:22:52.778Z,3.43
2023-02-26T08:25:29.933Z,2.80
2023-02-26T08:27:58.902Z,2.77
2023-02-26T08:30:32.389Z,2.73
2023-02-26T08:33:03.850Z,2.77
2023-02-26T08:35:35.197Z,2.90
2023-02-26T08:38:07.313Z,3.30
2023-02-26T08:40:38.023Z,3.10
2023-02-26T08:43:06.598Z,2.00
2023-02-26T08:45:39.090Z,2.57
2023-02-26T08:48:10.655Z,2.10
2023-02-26T08:50:41.542Z,2.37
2023-02-26T08:53:16.489Z,1.90
2023-02-26T08:55:54.991Z,2.03
2023-02-26T08:58:32.298Z,2.13
2023-02-26T09:01:06.006Z,1.90
2023-02-26T09:03:37.980Z,2.33
2023-02-26T09:06:08.940Z,1.97
2023-02-26T09:08:38.514Z,1.43
2023-02-26T09:11:07.541Z,2.30
2023-02-26T09:13:37.051Z,2.13
2023-02-26T09:16:08.972Z,1.97
2023-02-26T09:18:40.627Z,2.40
2023-02-26T09:21:12.291Z,1.97
2023-02-26T09:23:43.296Z,2.00
2023-02-26T09:26:25.147Z,1.87
2023-02-26T09:29:03.005Z,2.33
2023-02-26T09:31:37.033Z,1.93
2023-02-26T09:34:11.715Z,1.50
2023-02-26T09:36:48.645Z,1.70
2023-02-26T09:39:25.564Z,1.70
2023-02-26T09:42:01.099Z,1.73
2023-02-26T09:44:35.561Z,1.97
2023-02-26T09:47:17.136Z,2.60
2023-02-26T09:49:55.119Z,1.33
2023-02-26T09:52:27.462Z,1.77
2023-02-26T09:55:03.986Z,1.93
2023-02-26T09:57:41.754Z,2.00
2023-02-26T10:00:24.799Z,1.97
2023-02-26T10:03:17.943Z,1.80
2023-02-26T10:06:00.859Z,1.90
2023-02-26T10:08:34.827Z,2.03
2023-02-26T10:11:09.089Z,1.67
2023-02-26T10:13:56.658Z,1.97
2023-02-26T10:16:34.629Z,1.30
2023-02-26T10:19:22.498Z,1.87
2023-02-26T10:21:56.171Z,1.60
2023-02-26T10:24:32.449Z,1.90
2023-02-26T10:27:12.030Z,1.53
2023-02-26T10:29:47.572Z,1.90
2023-02-26T10:32:27.312Z,1.33
2023-02-26T10:35:10.906Z,1.93
2023-02-26T10:37:54.856Z,1.60
2023-02-26T10:40:29.647Z,1.53
2023-02-26T10:43:01.364Z,1.40
2023-02-26T10:45:47.252Z,1.20
2023-02-26T10:48:29.800Z,1.30
2023-02-26T10:51:14.483Z,1.17
2023-02-26T10:53:56.521Z,1.27
2023-02-26T10:56:30.026Z,1.20
2023-02-26T10:59:04.050Z,1.57
2023-02-26T11:01:42.032Z,1.33
2023-02-26T11:04:20.555Z,1.30
2023-02-26T11:07:07.222Z,1.17
2023-02-26T11:09:44.258Z,1.50
2023-02-26T11:12:26.168Z,1.77
2023-02-26T11:15:02.611Z,1.57
2023-02-26T11:17:34.026Z,1.20
2023-02-26T11:20:11.904Z,1.30
2023-02-26T11:22:54.170Z,1.60
2023-02-26T11:25:26.618Z,2.70
2023-02-26T11:28:02.447Z,1.80
2023-02-26T11:30:47.877Z,1.67
2023-02-26T11:33:20.727Z,2.00
2023-02-26T11:36:02.900Z,2.23
2023-02-26T11:38:52.266Z,2.07
2023-02-26T11:41:24.027Z,2.10
2023-02-26T11:44:04.399Z,2.00
2023-02-26T11:46:33.628Z,1.90
2023-02-26T11:49:04.137Z,2.40
2023-02-26T11:51:38.793Z,1.83
2023-02-26T11:54:27.270Z,1.40
2023-02-26T11:57:06.354Z,1.40
2023-02-26T12:00:00.804Z,1.50
2023-02-26T12:02:59.944Z,2.27
2023-02-26T12:05:30.143Z,1.80
2023-02-26T12:07:59.010Z,1.47
2023-02-26T12:10:47.460Z,1.90
2023-02-26T12:13:25.371Z,1.37
2023-02-26T12:16:03.947Z,1.50
2023-02-26T12:18:58.530Z,1.67
2023-02-26T12:22:17.749Z,1.70
2023-02-26T12:25:15.740Z,1.60
2023-02-26T12:28:15.704Z,1.10
2023-02-26T12:31:28.836Z,1.47
2023-02-26T12:34:33.733Z,1.20
2023-02-26T12:37:32.419Z,1.33
2023-02-26T12:40:24.080Z,1.50
2023-02-26T12:43:03.486Z,1.60
2023-02-26T12:45:58.946Z,1.67
2023-02-26T12:48:57.424Z,1.40
2023-02-26T12:51:42.126Z,2.00
2023-02-26T12:54:38.641Z,1.83
2023-02-26T12:57:56.807Z,1.80
2023-02-26T13:00:58.608Z,1.63
2023-02-26T13:04:06.902Z,1.37
2023-02-26T13:06:59.480Z,1.80
2023-02-26T13:09:40.218Z,1.60
2023-02-26T13:12:29.455Z,1.53
2023-02-26T13:15:11.396Z,1.53
2023-02-26T13:17:55.641Z,1.33
2023-02-26T13:20:32.086Z,1.60
2023-02-26T13:23:13.643Z,1.30
2023-02-26T13:25:57.746Z,1.40
2023-02-26T13:28:41.159Z,1.43
2023-02-26T13:31:20.795Z,1.70
2023-02-26T13:34:01.730Z,1.43
2023-02-26T13:36:49.770Z,1.90
2023-02-26T13:39:53.848Z,1.70
2023-02-26T13:42:38.514Z,1.90
2023-02-26T13:45:36.978Z,2.10
2023-02-26T13:48:22.130Z,2.23
2023-02-26T13:51:04.212Z,1.50
2023-02-26T13:53:59.364Z,1.83
2023-02-26T13:56:57.676Z,1.53
2023-02-26T13:59:38.801Z,1.80
2023-02-26T14:02:41.340Z,1.80
2023-02-26T14:05:40.420Z,1.20
2023-02-26T14:08:34.861Z,1.30
2023-02-26T14:11:46.158Z,1.10
2023-02-26T14:14:32.904Z,1.40
2023-02-26T14:17:32.882Z,1.60
2023-02-26T14:20:28.817Z,1.77
2023-02-26T14:23:32.356Z,2.20
2023-02-26T14:26:16.494Z,1.93
2023-02-26T14:29:00.308Z,1.90
2023-02-26T14:31:55.685Z,2.60
2023-02-26T14:34:36.042Z,1.80
2023-02-26T14:37:09.751Z,2.17
2023-02-26T14:39:48.926Z,2.10
2023-02-26T14:42:41.288Z,2.20
2023-02-26T14:45:38.011Z,2.00
2023-02-26T14:48:22.876Z,2.00
2023-02-26T14:51:13.717Z,1.80
2023-02-26T14:54:11.746Z,2.20
2023-02-26T14:57:01.004Z,2.40
2023-02-26T15:00:09.558Z,1.80
2023-02-26T15:02:50.873Z,1.73
2023-02-26T15:05:59.447Z,1.77
2023-02-26T15:08:52.790Z,2.23
2023-02-26T15:11:56.142Z,2.00
2023-02-26T15:15:06.351Z,2.57
2023-02-26T15:17:51.230Z,2.00
2023-02-26T15:20:29.305Z,2.10
2023-02-26T15:23:39.087Z,2.00
2023-02-26T15:26:18.619Z,2.10
2023-02-26T15:28:49.512Z,1.93
2023-02-26T15:31:40.689Z,2.00
2023-02-26T15:34:15.692Z,1.90
2023-02-26T15:36:53.253Z,1.97
2023-02-26T15:39:29.248Z,2.10
2023-02-26T15:41:59.679Z,1.93
2023-02-26T15:44:33.480Z,1.73
2023-02-26T15:47:30.793Z,2.20
2023-02-26T15:50:03.050Z,2.00
2023-02-26T15:52:44.690Z,1.67
2023-02-26T15:55:20.181Z,1.93
2023-02-26T15:57:56.237Z,2.10
2023-02-26T16:00:28.525Z,2.13
2023-02-26T16:03:05.693Z,1.90
2023-02-26T16:05:37.983Z,1.90
2023-02-26T16:08:19.955Z,2.00
2023-02-26T16:10:50.693Z,2.50
2023-02-26T16:13:32.114Z,2.23
2023-02-26T16:16:08.651Z,2.20
2023-02-26T16:18:48.198Z,1.90
2023-02-26T16:21:25.335Z,1.50
2023-02-26T16:23:59.021Z,1.80
2023-02-26T16:26:39.902Z,1.70
2023-02-26T16:29:21.367Z,2.17
2023-02-26T16:31:58.278Z,2.17
2023-02-26T16:34:58.051Z,3.10
2023-02-26T16:37:38.228Z,2.83
2023-02-26T16:40:26.418Z,2.27
2023-02-26T16:43:08.768Z,2.37
2023-02-26T16:45:51.417Z,2.60
2023-02-26T16:48:28.907Z,2.43
2023-02-26T16:51:21.796Z,2.40
2023-02-26T16:54:06.894Z,2.63
2023-02-26T16:56:42.221Z,2.23
2023-02-26T16:59:35.281Z,2.60
2023-02-26T17:02:14.522Z,1.90
2023-02-26T17:04:53.880Z,2.50
2023-02-26T17:08:00.828Z,2.27
2023-02-26T17:10:41.257Z,2.17
2023-02-26T17:13:20.331Z,2.07
2023-02-26T17:15:57.942Z,2.13
2023-02-26T17:18:33.052Z,2.60
2023-02-26T17:21:10.571Z,2.70
2023-02-26T17:23:47.276Z,2.50
2023-02-26T17:26:20.244Z,2.70
2023-02-26T17:28:57.342Z,2.10
2023-02-26T17:31:32.919Z,1.93
2023-02-26T17:34:11.452Z,2.53
2023-02-26T17:37:00.403Z,2.50
2023-02-26T17:39:54.004Z,2.63
2023-02-26T17:42:28.334Z,2.10
2023-02-26T17:45:13.822Z,2.73
2023-02-26T17:47:50.671Z,2.37
2023-02-26T17:50:31.090Z,2.70
2023-02-26T17:53:14.713Z,2.77
2023-02-26T17:56:03.107Z,2.40
2023-02-26T17:58:35.285Z,2.80
2023-02-26T18:01:20.117Z,2.80
2023-02-26T18:04:02.055Z,3.40
2023-02-26T18:06:39.335Z,2.70
2023-02-26T18:12:21.320Z,3.03
2023-02-26T18:14:58.568Z,3.23
2023-02-26T18:17:34.321Z,3.20
2023-02-26T18:20:14.630Z,2.90
2023-02-26T18:22:56.975Z,3.13
2023-02-26T18:25:34.210Z,2.90
2023-02-26T18:28:17.573Z,3.40
2023-02-26T18:31:02.727Z,2.40
2023-02-26T18:33:47.961Z,3.70
2023-02-26T18:36:35.245Z,3.77
2023-02-26T18:39:13.487Z,3.37
2023-02-26T18:41:44.829Z,3.67
2023-02-26T18:44:20.439Z,3.43
2023-02-26T18:46:52.938Z,3.63
2023-02-26T18:49:30.004Z,3.53
2023-02-26T18:52:00.796Z,3.20
2023-02-26T18:54:32.447Z,3.10
2023-02-26T18:57:09.727Z,2.60
2023-02-26T18:59:45.903Z,3.27
2023-02-26T19:02:22.774Z,4.10
2023-02-26T19:04:55.818Z,4.10
2023-02-26T19:07:34.948Z,3.40
2023-02-26T19:10:12.012Z,4.50
2023-02-26T19:12:53.888Z,4.33
2023-02-26T19:16:00.113Z,3.50
2023-02-26T19:18:31.230Z,3.70
2023-02-26T19:21:12.201Z,3.97
2023-02-26T19:23:45.270Z,3.13
2023-02-26T19:26:24.933Z,3.33
2023-02-26T19:28:55.475Z,3.00
2023-02-26T19:31:33.596Z,3.73
2023-02-26T19:34:05.528Z,3.43
2023-02-26T19:36:48.403Z,3.63
2023-02-26T19:39:24.586Z,3.30
2023-02-26T19:42:13.147Z,3.10
2023-02-26T19:44:48.705Z,3.30
2023-02-26T19:47:31.167Z,2.87
2023-02-26T19:50:08.434Z,2.70
2023-02-26T19:53:11.261Z,2.70
2023-02-26T19:55:54.005Z,2.20
2023-02-26T19:58:36.840Z,2.73
2023-02-26T20:01:17.265Z,4.00
2023-02-26T20:04:09.658Z,4.10
2023-02-26T20:06:54.693Z,3.50
2023-02-26T20:09:33.037Z,3.13
2023-02-26T20:12:09.200Z,2.70
2023-02-26T20:14:46.806Z,3.23
2023-02-26T20:17:30.164Z,2.70
2023-02-26T20:20:10.431Z,2.80
2023-02-26T20:22:54.234Z,2.73
2023-02-26T20:25:26.174Z,2.40
2023-02-26T20:28:10.592Z,2.77
2023-02-26T20:30:43.510Z,3.03
2023-02-26T20:33:17.432Z,3.23
2023-02-26T20:36:06.473Z,2.90
2023-02-26T20:38:50.705Z,3.00
2023-02-26T20:41:31.921Z,3.33
2023-02-26T20:44:13.950Z,3.00
2023-02-26T20:46:59.096Z,3.43
2023-02-26T20:49:37.194Z,3.13
2023-02-26T20:52:21.964Z,2.77
2023-02-26T20:55:04.636Z,3.07
2023-02-26T20:57:44.735Z,3.37
2023-02-26T21:00:17.443Z,2.70
2023-02-26T21:02:59.601Z,2.83
2023-02-26T21:05:39.399Z,2.73
2023-02-26T21:08:14.712Z,3.40
2023-02-26T21:10:44.337Z,3.03
2023-02-26T21:13:22.539Z,3.20
2023-02-26T21:15:54.219Z,3.20
2023-02-26T21:18:37.219Z,3.47
2023-02-26T21:21:19.565Z,3.10
2023-02-26T21:24:08.609Z,9.47
2023-02-26T21:26:43.825Z,9.47
2023-02-26T21:29:13.205Z,6.83
2023-02-26T21:31:44.003Z,3.73
2023-02-26T21:34:33.220Z,4.17
2023-02-26T21:37:17.930Z,3.37
2023-02-26T21:39:54.336Z,3.53
2023-02-26T21:42:28.427Z,3.43
2023-02-26T21:45:11.334Z,3.53
2023-02-26T21:47:53.329Z,3.77
2023-02-26T21:50:26.375Z,3.07
2023-02-26T21:53:02.271Z,3.50
2023-02-26T21:55:43.848Z,3.60
2023-02-26T21:58:21.256Z,3.67
2023-02-26T22:00:57.229Z,4.07
2023-02-26T22:03:30.036Z,3.70
2023-02-26T22:06:10.962Z,3.77
2023-02-26T22:08:41.888Z,3.77
2023-02-26T22:11:16.883Z,3.63
2023-02-26T22:13:48.829Z,3.80
2023-02-26T22:16:19.993Z,3.47
2023-02-26T22:18:57.304Z,4.00
2023-02-26T22:21:30.724Z,5.60
2023-02-26T22:24:03.924Z,4.53
2023-02-26T22:26:47.126Z,4.87
2023-02-26T22:29:29.144Z,8.00
2023-02-26T22:32:01.546Z,10.90
2023-02-26T22:35:01.155Z,10.30
2023-02-26T22:37:33.043Z,5.10
2023-02-26T22:40:01.763Z,8.40
2023-02-26T22:42:35.966Z,6.00
2023-02-26T22:45:17.289Z,5.50
2023-02-26T22:47:48.306Z,4.80
2023-02-26T22:50:24.444Z,5.40
2023-02-26T22:52:55.137Z,8.50
2023-02-26T22:55:24.147Z,3.60
2023-02-26T22:58:05.301Z,3.37
2023-02-26T23:00:36.322Z,5.00
2023-02-26T23:03:06.067Z,3.83
2023-02-26T23:05:45.723Z,4.00
2023-02-26T23:08:23.037Z,4.37
2023-02-26T23:10:58.890Z,4.17
2023-02-26T23:13:34.340Z,3.77
2023-02-26T23:16:07.334Z,4.33
2023-02-26T23:18:38.072Z,4.03
2023-02-26T23:21:07.979Z,4.20
2023-02-26T23:23:42.451Z,3.90
2023-02-26T23:26:18.497Z,3.90
2023-02-26T23:28:54.095Z,4.70
2023-02-26T23:31:22.692Z,4.30
2023-02-26T23:33:56.848Z,3.60
2023-02-26T23:36:28.415Z,4.50
2023-02-26T23:38:57.693Z,3.30
2023-02-26T23:41:39.282Z,4.23
2023-02-26T23:44:28.336Z,4.10
2023-02-26T23:47:05.280Z,4.00
2023-02-26T23:49:46.279Z,4.23
2023-02-26T23:52:18.509Z,4.40
2023-02-26T23:55:05.198Z,4.67
2023-02-26T23:57:34.844Z,5.53
